Terminal Aerodrome Forecast
Issued by NWS Shreveport, LA

Home | Current Version | Previous Version | Text Only | Print | Product List | Glossary On
Versions: 1 2 3 4 5 6 7 8 9 10 11 12 13 14 15 16 17
665
FTUS44 KSHV 270523
TAFELD
TAF
KELD 270523Z 2706/2806 14006KT P6SM SCT030 BKN120
      TEMPO 2712/2715 BKN020
     FM271800 17012G20KT P6SM VCTS BKN040CB=

USA.gov is the U.S. government's official web portal to all federal, state and local government web resources and services.